createdAt,value
2018-07-02T00:02:24.519Z,60.29
2018-07-02T00:04:51.672Z,58.73
2018-07-02T00:07:22.765Z,57.37
2018-07-02T00:09:50.376Z,57.27
2018-07-02T00:12:18.481Z,57.67
2018-07-02T00:14:46.740Z,58.40
2018-07-02T00:17:13.931Z,58.44
2018-07-02T00:19:41.133Z,58.51
2018-07-02T00:22:08.467Z,59.69
2018-07-02T00:24:35.616Z,63.03
2018-07-02T00:27:02.741Z,64.20
2018-07-02T00:29:29.948Z,64.95
2018-07-02T00:31:57.066Z,62.94
2018-07-02T00:34:24.329Z,61.40
2018-07-02T00:36:51.555Z,61.81
2018-07-02T00:39:18.755Z,62.91
2018-07-02T00:41:45.924Z,64.23
2018-07-02T00:44:13.300Z,64.86
2018-07-02T00:46:40.513Z,62.96
2018-07-02T00:49:08.035Z,62.46
2018-07-02T00:51:35.199Z,61.53
2018-07-02T00:54:02.538Z,61.99
2018-07-02T00:56:29.647Z,63.92
2018-07-02T00:58:56.797Z,65.87
2018-07-02T01:01:27.760Z,69.10
2018-07-02T01:03:56.021Z,68.95
2018-07-02T01:06:23.213Z,69.06
2018-07-02T01:08:50.407Z,66.48
2018-07-02T01:11:17.538Z,66.37
2018-07-02T01:13:44.687Z,64.09
2018-07-02T01:16:11.817Z,63.37
2018-07-02T01:18:38.913Z,63.92
2018-07-02T01:21:06.071Z,66.07
2018-07-02T01:23:33.336Z,64.92
2018-07-02T01:26:00.478Z,64.34
2018-07-02T01:28:27.696Z,67.71
2018-07-02T01:30:54.940Z,66.71
2018-07-02T01:33:22.061Z,68.17
2018-07-02T01:35:49.192Z,70.06
2018-07-02T01:38:16.355Z,69.27
2018-07-02T01:40:43.578Z,66.37
2018-07-02T01:43:10.791Z,65.51
2018-07-02T01:45:37.991Z,64.70
2018-07-02T01:48:05.212Z,64.40
2018-07-02T01:50:32.372Z,64.51
2018-07-02T01:52:59.548Z,65.16
2018-07-02T01:55:26.805Z,69.06
2018-07-02T01:57:53.959Z,71.19
2018-07-02T02:00:21.124Z,73.18
2018-07-02T02:02:48.292Z,70.81
2018-07-02T02:05:15.579Z,68.01
2018-07-02T02:07:42.664Z,66.64
2018-07-02T02:10:09.930Z,68.65
2018-07-02T02:12:37.084Z,70.98
2018-07-02T02:15:05.096Z,72.35
2018-07-02T02:17:32.225Z,71.34
2018-07-02T02:19:59.352Z,71.54
2018-07-02T02:22:26.532Z,70.33
2018-07-02T02:24:53.720Z,68.62
2018-07-02T02:27:20.938Z,68.05
2018-07-02T02:29:48.095Z,67.91
2018-07-02T02:32:15.365Z,67.36
2018-07-02T02:34:42.478Z,69.35
2018-07-02T02:37:09.659Z,70.41
2018-07-02T02:39:36.807Z,69.02
2018-07-02T02:42:04.094Z,70.17
2018-07-02T02:44:31.299Z,70.83
2018-07-02T02:46:58.461Z,69.75
2018-07-02T02:49:25.668Z,68.97
2018-07-02T02:51:52.824Z,68.25
2018-07-02T02:54:19.965Z,68.95
2018-07-02T02:56:47.128Z,68.11
2018-07-02T02:59:14.256Z,69.21
2018-07-02T03:01:41.528Z,70.68
2018-07-02T03:04:08.665Z,72.27
2018-07-02T03:06:35.843Z,74.62
2018-07-02T03:09:04.853Z,73.84
2018-07-02T03:11:31.928Z,71.64
2018-07-02T03:13:59.062Z,70.61
2018-07-02T03:16:26.261Z,69.90
2018-07-02T03:18:53.478Z,69.59
2018-07-02T03:21:20.691Z,72.30
2018-07-02T03:23:47.848Z,72.32
2018-07-02T03:26:14.996Z,70.51
2018-07-02T03:28:42.180Z,70.25
2018-07-02T03:31:09.333Z,70.97
2018-07-02T03:33:36.454Z,71.00
2018-07-02T03:36:03.644Z,72.21
2018-07-02T03:38:31.148Z,71.08
2018-07-02T03:40:58.376Z,73.61
2018-07-02T03:43:25.524Z,75.02
2018-07-02T03:45:52.703Z,75.83
2018-07-02T03:48:19.852Z,74.52
2018-07-02T03:50:47.027Z,73.74
2018-07-02T03:53:14.208Z,73.34
2018-07-02T03:55:41.385Z,73.08
2018-07-02T03:58:08.523Z,72.28
2018-07-02T04:00:35.802Z,72.08
2018-07-02T04:03:02.909Z,70.24
2018-07-02T04:05:30.092Z,69.68
2018-07-02T04:07:57.235Z,71.05
2018-07-02T04:10:24.418Z,70.76
2018-07-02T04:12:51.551Z,71.46
2018-07-02T04:15:18.708Z,70.10
2018-07-02T04:17:45.908Z,68.57
2018-07-02T04:20:13.275Z,70.21
2018-07-02T04:22:40.455Z,71.48
2018-07-02T04:25:07.589Z,69.47
2018-07-02T04:27:34.713Z,67.83
2018-07-02T04:30:01.901Z,66.89
2018-07-02T04:32:29.028Z,65.95
2018-07-02T04:34:56.220Z,64.95
2018-07-02T04:37:23.411Z,64.47
2018-07-02T04:39:50.565Z,63.82
2018-07-02T04:42:17.699Z,63.69
2018-07-02T04:44:44.872Z,63.32
2018-07-02T04:47:12.038Z,63.80
2018-07-02T04:49:39.206Z,63.95
2018-07-02T04:52:06.410Z,64.05
2018-07-02T04:54:33.667Z,65.04
2018-07-02T04:57:00.905Z,66.29
2018-07-02T04:59:28.076Z,65.08
2018-07-02T05:01:55.312Z,63.65
2018-07-02T05:04:22.548Z,64.04
2018-07-02T05:06:49.667Z,63.77
2018-07-02T05:09:17.200Z,63.64
2018-07-02T05:11:44.317Z,62.11
2018-07-02T05:14:11.442Z,61.64
2018-07-02T05:16:38.584Z,61.08
2018-07-02T05:32:10.296Z,59.50
2018-07-02T05:34:37.466Z,56.43
2018-07-02T05:37:04.610Z,58.80
2018-07-02T05:39:31.777Z,56.59
2018-07-02T05:41:58.864Z,55.66
2018-07-02T05:44:26.240Z,54.62
2018-07-02T05:46:53.365Z,53.69
2018-07-02T05:49:21.093Z,53.53
2018-07-02T05:51:48.713Z,53.33
2018-07-02T05:54:15.952Z,52.32
2018-07-02T05:56:44.193Z,51.10
2018-07-02T05:59:13.346Z,50.06
2018-07-02T06:01:40.455Z,48.80
2018-07-02T06:04:07.565Z,49.89
2018-07-02T06:06:34.644Z,48.82
2018-07-02T06:09:01.745Z,48.59
2018-07-02T06:11:28.891Z,47.38
2018-07-02T06:13:55.992Z,46.70
2018-07-02T06:16:23.160Z,46.19
2018-07-02T06:18:50.279Z,45.51
2018-07-02T06:21:17.392Z,43.97
2018-07-02T06:23:44.514Z,42.64
2018-07-02T06:26:12.528Z,41.90
2018-07-02T06:28:39.732Z,41.78
2018-07-02T06:31:06.868Z,41.58
2018-07-02T06:33:34.040Z,40.72
2018-07-02T06:36:01.156Z,39.99
2018-07-02T06:38:28.289Z,39.63
2018-07-02T06:40:55.499Z,39.60
2018-07-02T06:43:22.711Z,39.33
2018-07-02T06:45:49.975Z,39.31
2018-07-02T06:48:17.102Z,39.34
2018-07-02T06:50:44.232Z,39.04
2018-07-02T06:53:11.402Z,39.14
2018-07-02T06:55:38.565Z,39.40
2018-07-02T06:58:05.701Z,38.08
2018-07-02T07:00:32.863Z,37.61
2018-07-02T07:02:59.984Z,39.25
2018-07-02T07:05:27.096Z,37.08
2018-07-02T07:07:54.261Z,36.66
2018-07-02T07:10:21.460Z,37.05
2018-07-02T07:12:48.600Z,36.96
2018-07-02T07:15:15.710Z,36.85
2018-07-02T07:17:42.864Z,36.79
2018-07-02T07:20:10.021Z,34.51
2018-07-02T07:22:37.120Z,34.51
2018-07-02T07:25:04.381Z,35.86
2018-07-02T07:27:31.533Z,35.68
2018-07-02T07:29:58.689Z,34.58
2018-07-02T07:32:25.795Z,34.72
2018-07-02T07:34:52.976Z,34.51
2018-07-02T07:37:20.097Z,34.96
2018-07-02T07:39:47.298Z,34.00
2018-07-02T07:42:14.435Z,35.27
2018-07-02T07:44:41.557Z,33.94
2018-07-02T07:47:08.674Z,33.91
2018-07-02T07:49:35.811Z,34.16
2018-07-02T07:52:02.938Z,35.27
2018-07-02T07:54:30.171Z,34.97
2018-07-02T07:56:57.316Z,35.08
2018-07-02T07:59:24.481Z,35.77
2018-07-02T08:01:51.605Z,34.97
2018-07-02T08:04:18.685Z,34.50
2018-07-02T08:06:45.845Z,35.82
2018-07-02T08:09:13.014Z,35.49
2018-07-02T08:11:40.629Z,35.12
2018-07-02T08:14:07.780Z,36.46
2018-07-02T08:16:34.972Z,35.34
2018-07-02T08:19:02.172Z,34.47
2018-07-02T08:21:29.231Z,33.03
2018-07-02T08:23:56.360Z,33.12
2018-07-02T08:26:23.531Z,33.17
2018-07-02T08:28:50.730Z,33.10
2018-07-02T08:31:17.873Z,31.95
2018-07-02T08:33:45.040Z,31.32
2018-07-02T08:36:12.446Z,32.06
2018-07-02T08:38:39.591Z,31.20
2018-07-02T08:41:06.756Z,32.89
2018-07-02T08:43:33.892Z,32.65
2018-07-02T08:46:00.996Z,32.23
2018-07-02T08:48:28.136Z,31.63
2018-07-02T08:50:55.231Z,30.85
2018-07-02T08:53:22.444Z,30.37
2018-07-02T08:55:49.656Z,30.07
2018-07-02T08:58:16.765Z,29.36
2018-07-02T09:00:43.885Z,29.92
2018-07-02T09:03:11.023Z,30.03
2018-07-02T09:05:38.152Z,29.58
2018-07-02T09:08:05.393Z,29.54
2018-07-02T09:10:32.601Z,31.16
2018-07-02T09:12:59.764Z,30.69
2018-07-02T09:15:26.914Z,28.87
2018-07-02T09:17:54.040Z,30.04
2018-07-02T09:20:21.189Z,30.67
2018-07-02T09:22:48.382Z,30.04
2018-07-02T09:25:15.550Z,28.66
2018-07-02T09:27:42.656Z,28.34
2018-07-02T09:30:09.866Z,28.04
2018-07-02T09:32:37.081Z,29.58
2018-07-02T09:35:04.361Z,29.68
2018-07-02T09:37:31.503Z,28.86
2018-07-02T09:39:58.670Z,28.82
2018-07-02T09:42:25.808Z,27.80
2018-07-02T09:44:52.988Z,29.17
2018-07-02T09:47:20.105Z,27.79
2018-07-02T09:49:47.262Z,26.62
2018-07-02T09:52:14.422Z,28.78
2018-07-02T09:54:41.684Z,28.39
2018-07-02T09:57:08.769Z,27.64
2018-07-02T09:59:35.940Z,27.96
2018-07-02T10:02:03.068Z,28.06
2018-07-02T10:04:30.289Z,28.69
2018-07-02T10:06:57.399Z,26.75
2018-07-02T10:09:24.543Z,26.90
2018-07-02T10:11:51.734Z,27.88
2018-07-02T10:14:18.903Z,27.07
2018-07-02T10:16:46.115Z,27.62
2018-07-02T10:19:13.272Z,27.13
2018-07-02T10:21:40.436Z,26.32
2018-07-02T10:24:07.607Z,26.25
2018-07-02T10:26:34.794Z,25.56
2018-07-02T10:29:01.999Z,26.01
2018-07-02T10:31:29.202Z,25.33
2018-07-02T10:33:56.315Z,26.15
2018-07-02T10:36:23.435Z,24.88
2018-07-02T10:38:50.596Z,25.71
2018-07-02T10:41:17.756Z,25.66
2018-07-02T10:43:44.873Z,25.47
2018-07-02T10:46:12.032Z,26.31
2018-07-02T10:48:39.153Z,27.43
2018-07-02T10:51:06.313Z,26.45
2018-07-02T10:53:33.532Z,27.28
2018-07-02T10:56:00.704Z,25.13
2018-07-02T10:58:27.831Z,25.54
2018-07-02T11:00:55.002Z,25.63
2018-07-02T11:03:22.120Z,25.14
2018-07-02T11:05:49.272Z,25.61
2018-07-02T11:08:16.445Z,26.14
2018-07-02T11:10:43.606Z,25.54
2018-07-02T11:13:11.588Z,26.23
2018-07-02T11:15:39.753Z,25.26
2018-07-02T11:18:07.147Z,25.08
2018-07-02T11:20:34.590Z,25.99
2018-07-02T11:23:01.733Z,25.28
2018-07-02T11:25:28.902Z,26.08
2018-07-02T11:27:56.086Z,25.93
2018-07-02T11:30:23.863Z,25.47
2018-07-02T11:32:51.021Z,25.54
2018-07-02T11:35:18.337Z,25.53
2018-07-02T11:37:45.840Z,23.66
2018-07-02T11:40:13.332Z,23.90
2018-07-02T11:42:40.501Z,23.25
2018-07-02T11:45:07.783Z,23.24
2018-07-02T11:47:35.319Z,24.19
2018-07-02T11:50:02.642Z,23.52
2018-07-02T11:52:29.973Z,24.92
2018-07-02T11:54:57.361Z,24.39
2018-07-02T11:57:24.945Z,23.47
2018-07-02T11:59:52.184Z,22.86
2018-07-02T12:02:19.434Z,23.10
2018-07-02T12:04:46.914Z,24.07
2018-07-02T12:07:14.098Z,25.17
2018-07-02T12:09:41.263Z,23.81
2018-07-02T12:12:08.420Z,24.64
2018-07-02T12:14:35.560Z,24.01
2018-07-02T12:17:02.822Z,23.17
2018-07-02T12:19:30.023Z,22.87
2018-07-02T12:21:57.165Z,21.89
2018-07-02T12:24:24.273Z,23.64
2018-07-02T12:26:51.980Z,23.79
2018-07-02T12:29:19.219Z,23.21
2018-07-02T12:31:46.368Z,22.46
2018-07-02T12:34:13.562Z,22.44
2018-07-02T12:36:40.833Z,22.42
2018-07-02T12:39:09.849Z,22.86
2018-07-02T12:41:37.136Z,23.95
2018-07-02T12:44:04.301Z,23.73
2018-07-02T12:46:31.488Z,23.78
2018-07-02T12:48:58.716Z,24.08
2018-07-02T12:51:25.871Z,24.46
2018-07-02T12:53:53.092Z,22.51
2018-07-02T12:56:20.295Z,22.79
2018-07-02T12:58:47.552Z,22.63
2018-07-02T13:01:14.675Z,22.92
2018-07-02T13:03:41.818Z,21.26
2018-07-02T13:06:09.105Z,21.48
2018-07-02T13:08:36.236Z,21.89
2018-07-02T13:11:03.437Z,22.47
2018-07-02T13:13:30.619Z,22.10
2018-07-02T13:15:57.688Z,21.37
2018-07-02T13:18:24.866Z,20.79
2018-07-02T13:20:52.101Z,21.01
2018-07-02T13:23:19.214Z,20.74
2018-07-02T13:25:46.426Z,19.99
2018-07-02T13:28:13.568Z,19.71
2018-07-02T13:30:40.733Z,20.36
2018-07-02T13:33:08.176Z,21.88
2018-07-02T13:35:35.385Z,22.34
2018-07-02T13:38:02.556Z,21.37
2018-07-02T13:40:29.849Z,20.61
2018-07-02T13:42:57.021Z,20.96
2018-07-02T13:45:24.210Z,21.02
2018-07-02T13:47:51.391Z,20.62
2018-07-02T13:50:18.551Z,19.92
2018-07-02T13:52:46.097Z,19.50
2018-07-02T13:55:14.153Z,19.72
2018-07-02T13:57:41.271Z,20.91
2018-07-02T14:00:08.504Z,20.27
2018-07-02T14:02:35.678Z,19.72
2018-07-02T14:05:02.912Z,20.53
2018-07-02T14:07:30.154Z,20.80
2018-07-02T14:09:57.375Z,20.32
2018-07-02T14:12:24.520Z,19.95
2018-07-02T14:14:51.809Z,20.43
2018-07-02T14:17:18.943Z,21.09
2018-07-02T14:19:46.072Z,20.86
2018-07-02T14:22:13.260Z,20.24
2018-07-02T14:24:40.433Z,19.55
2018-07-02T14:27:07.852Z,19.78
2018-07-02T14:29:34.947Z,20.67
2018-07-02T14:32:02.273Z,19.99
2018-07-02T14:34:29.404Z,19.11
2018-07-02T14:36:56.745Z,19.20
2018-07-02T14:39:23.920Z,18.27
2018-07-02T14:41:51.175Z,18.69
2018-07-02T14:44:18.295Z,18.08
2018-07-02T14:46:45.450Z,17.08
2018-07-02T14:49:12.559Z,17.49
2018-07-02T14:51:39.985Z,16.59
2018-07-02T14:54:07.178Z,17.75
2018-07-02T14:56:34.367Z,18.37
2018-07-02T14:59:01.612Z,19.37
2018-07-02T15:01:28.765Z,19.87
2018-07-02T15:03:55.905Z,19.76
2018-07-02T15:06:23.061Z,18.89
2018-07-02T15:08:50.501Z,19.68
2018-07-02T15:11:17.684Z,18.95
2018-07-02T15:13:44.831Z,18.90
2018-07-02T15:16:12.079Z,19.42
2018-07-02T15:18:39.241Z,20.58
2018-07-02T15:21:06.691Z,21.21
2018-07-02T15:23:33.840Z,20.46
2018-07-02T15:26:01.070Z,19.03
2018-07-02T15:28:28.623Z,19.37
2018-07-02T15:30:55.883Z,18.71
2018-07-02T15:33:23.042Z,20.33
2018-07-02T15:35:50.213Z,18.99
2018-07-02T15:38:17.367Z,18.70
2018-07-02T15:40:44.573Z,18.50
2018-07-02T15:43:11.790Z,19.76
2018-07-02T15:45:39.018Z,20.19
2018-07-02T15:48:06.220Z,20.28
2018-07-02T15:50:33.428Z,19.67
2018-07-02T15:53:00.598Z,19.27
2018-07-02T15:55:27.793Z,21.34
2018-07-02T15:57:54.994Z,21.52
2018-07-02T16:00:22.325Z,21.93
2018-07-02T16:02:49.445Z,21.81
2018-07-02T16:05:18.965Z,21.75
2018-07-02T16:07:46.091Z,21.96
2018-07-02T16:10:13.262Z,21.42
2018-07-02T16:12:40.856Z,22.33
2018-07-02T16:15:08.059Z,23.09
2018-07-02T16:17:35.218Z,23.74
2018-07-02T16:20:02.948Z,23.71
2018-07-02T16:22:30.148Z,22.25
2018-07-02T16:24:57.341Z,20.74
2018-07-02T16:27:24.581Z,21.64
2018-07-02T16:29:51.812Z,22.17
2018-07-02T16:32:18.997Z,23.09
2018-07-02T16:34:46.186Z,23.08
2018-07-02T16:37:14.425Z,23.42
2018-07-02T16:39:41.581Z,24.44
2018-07-02T16:42:08.829Z,23.00
2018-07-02T16:44:35.983Z,24.30
2018-07-02T16:47:03.216Z,23.49
2018-07-02T16:49:30.414Z,23.44
2018-07-02T16:51:57.650Z,23.52
2018-07-02T16:54:24.863Z,24.77
2018-07-02T16:56:52.121Z,25.06
2018-07-02T16:59:19.285Z,23.40
2018-07-02T17:01:46.479Z,24.37
2018-07-02T17:04:13.635Z,23.70
2018-07-02T17:06:40.785Z,24.14
2018-07-02T17:09:09.670Z,23.76
2018-07-02T17:11:37.355Z,23.96
2018-07-02T17:14:04.571Z,24.56
2018-07-02T17:16:31.749Z,23.19
2018-07-02T17:18:58.946Z,24.30
2018-07-02T17:21:26.112Z,23.82
2018-07-02T17:23:53.288Z,24.30
2018-07-02T17:26:20.481Z,24.77
2018-07-02T17:28:47.616Z,25.43
2018-07-02T17:31:14.828Z,26.35
2018-07-02T17:33:41.960Z,26.00
2018-07-02T17:36:09.144Z,25.97
2018-07-02T17:38:36.279Z,26.38
2018-07-02T17:41:03.603Z,26.85
2018-07-02T17:43:30.810Z,25.68
2018-07-02T17:45:58.033Z,25.30
2018-07-02T17:48:31.955Z,25.58
2018-07-02T17:50:59.187Z,25.98
2018-07-02T17:53:26.382Z,27.06
2018-07-02T17:55:53.592Z,27.76
2018-07-02T17:58:20.749Z,27.22
2018-07-02T18:00:47.890Z,26.48
2018-07-02T18:03:15.098Z,26.64
2018-07-02T18:05:42.300Z,26.93
2018-07-02T18:08:09.465Z,27.59
2018-07-02T18:10:36.727Z,29.14
2018-07-02T18:13:03.876Z,29.56
2018-07-02T18:15:31.080Z,29.02
2018-07-02T18:17:58.257Z,29.69
2018-07-02T18:20:25.409Z,29.15
2018-07-02T18:22:52.612Z,29.40
2018-07-02T18:25:19.733Z,29.18
2018-07-02T18:27:46.992Z,29.72
2018-07-02T18:30:14.193Z,29.45
2018-07-02T18:32:41.395Z,29.67
2018-07-02T18:35:08.582Z,29.88
2018-07-02T18:37:35.752Z,32.56
2018-07-02T18:40:03.680Z,31.82
2018-07-02T18:42:30.929Z,31.79
2018-07-02T18:44:58.068Z,31.60
2018-07-02T18:47:25.231Z,31.78
2018-07-02T18:49:52.354Z,32.26
2018-07-02T18:52:19.560Z,31.44
2018-07-02T18:54:46.720Z,32.14
2018-07-02T18:57:13.929Z,31.70
2018-07-02T18:59:41.100Z,31.80
2018-07-02T19:02:08.330Z,31.41
2018-07-02T19:04:35.558Z,31.65
2018-07-02T19:07:02.779Z,30.93
2018-07-02T19:09:29.948Z,31.20
2018-07-02T19:11:57.217Z,31.80
2018-07-02T19:14:24.407Z,33.29
2018-07-02T19:16:51.656Z,32.19
2018-07-02T19:19:18.840Z,32.91
2018-07-02T19:21:45.969Z,33.53
2018-07-02T19:24:13.171Z,32.92
2018-07-02T19:26:40.368Z,32.84
2018-07-02T19:29:07.560Z,32.80
2018-07-02T19:31:34.739Z,33.09
2018-07-02T19:34:01.912Z,33.50
2018-07-02T19:36:29.091Z,34.36
2018-07-02T19:38:56.237Z,34.25
2018-07-02T19:41:23.506Z,34.90
2018-07-02T19:43:51.924Z,35.76
2018-07-02T19:46:19.168Z,37.06
2018-07-02T19:48:47.556Z,36.15
2018-07-02T19:51:14.778Z,36.01
2018-07-02T19:53:41.986Z,37.10
2018-07-02T19:56:09.224Z,37.58
2018-07-02T19:58:36.385Z,37.32
2018-07-02T20:01:03.690Z,37.84
2018-07-02T20:03:30.859Z,38.20
2018-07-02T20:05:58.033Z,37.58
2018-07-02T20:08:25.209Z,39.28
2018-07-02T20:10:52.369Z,40.71
2018-07-02T20:13:19.610Z,40.75
2018-07-02T20:15:47.007Z,40.00
2018-07-02T20:18:14.139Z,40.31
2018-07-02T20:20:41.269Z,40.89
2018-07-02T20:23:08.436Z,40.22
2018-07-02T20:25:35.578Z,40.05
2018-07-02T20:28:02.876Z,40.25
2018-07-02T20:30:30.249Z,40.34
2018-07-02T20:32:57.413Z,42.13
2018-07-02T20:35:24.514Z,42.69
2018-07-02T20:37:51.715Z,42.97
2018-07-02T20:40:18.930Z,43.69
2018-07-02T20:42:46.111Z,42.95
2018-07-02T20:45:13.276Z,42.81
2018-07-02T20:47:40.501Z,46.25
2018-07-02T20:50:08.039Z,45.38
2018-07-02T20:52:35.217Z,44.42
2018-07-02T20:55:02.808Z,44.93
2018-07-02T20:57:30.000Z,44.91
2018-07-02T20:59:57.149Z,44.51
2018-07-02T21:02:24.359Z,44.63
2018-07-02T21:04:51.486Z,44.71
2018-07-02T21:07:18.635Z,44.67
2018-07-02T21:09:45.940Z,46.35
2018-07-02T21:12:13.080Z,45.94
2018-07-02T21:14:40.213Z,45.93
2018-07-02T21:17:07.404Z,45.74
2018-07-02T21:19:34.550Z,47.91
2018-07-02T21:22:01.680Z,47.28
2018-07-02T21:24:28.797Z,47.08
2018-07-02T21:26:55.947Z,46.07
2018-07-02T21:29:23.157Z,45.47
2018-07-02T21:31:50.389Z,46.54
2018-07-02T21:34:17.518Z,47.34
2018-07-02T21:36:44.680Z,47.29
2018-07-02T21:39:13.033Z,47.35
2018-07-02T21:41:40.775Z,46.85
2018-07-02T21:44:07.932Z,47.87
2018-07-02T21:46:35.080Z,48.74
2018-07-02T21:49:02.285Z,47.93
2018-07-02T21:51:29.731Z,48.17
2018-07-02T21:53:57.005Z,48.05
2018-07-02T21:56:24.153Z,48.96
2018-07-02T21:58:51.325Z,49.99
2018-07-02T22:01:19.618Z,49.75
2018-07-02T22:03:46.808Z,49.60
2018-07-02T22:06:13.976Z,49.52
2018-07-02T22:08:41.100Z,48.53
2018-07-02T22:11:08.256Z,48.62
2018-07-02T22:13:35.369Z,49.45
2018-07-02T22:16:02.503Z,49.47
2018-07-02T22:18:29.700Z,50.65
2018-07-02T22:20:56.815Z,51.33
2018-07-02T22:23:23.996Z,51.00
2018-07-02T22:25:51.161Z,51.69
2018-07-02T22:28:18.297Z,52.37
2018-07-02T22:30:45.425Z,53.24
2018-07-02T22:33:12.573Z,52.65
2018-07-02T22:35:39.669Z,52.34
2018-07-02T22:38:06.832Z,51.69
2018-07-02T22:40:34.035Z,52.63
2018-07-02T22:43:01.183Z,52.56
2018-07-02T22:45:28.329Z,53.73
2018-07-02T22:47:55.451Z,55.05
2018-07-02T22:50:22.593Z,54.60
2018-07-02T22:52:49.725Z,53.92
2018-07-02T22:55:16.869Z,53.74
2018-07-02T22:57:43.976Z,54.71
2018-07-02T23:00:11.145Z,56.29
2018-07-02T23:02:38.284Z,55.10
2018-07-02T23:05:05.504Z,55.35
2018-07-02T23:07:32.704Z,55.26
2018-07-02T23:09:59.916Z,55.67
2018-07-02T23:12:27.096Z,56.17
2018-07-02T23:14:54.201Z,55.73
2018-07-02T23:17:21.376Z,56.55
2018-07-02T23:19:48.516Z,56.75
2018-07-02T23:22:15.651Z,56.92
2018-07-02T23:24:42.748Z,56.00
2018-07-02T23:27:09.913Z,55.58
2018-07-02T23:29:37.020Z,58.42
2018-07-02T23:32:04.194Z,58.83
2018-07-02T23:34:31.344Z,57.51
2018-07-02T23:36:58.524Z,60.85
2018-07-02T23:39:25.760Z,59.93
2018-07-02T23:41:52.923Z,60.13
2018-07-02T23:44:20.006Z,58.95
2018-07-02T23:46:47.152Z,58.17
2018-07-02T23:49:14.257Z,58.83
2018-07-02T23:51:41.439Z,58.02
2018-07-02T23:54:08.584Z,58.80
2018-07-02T23:56:35.755Z,56.68
2018-07-02T23:59:02.967Z,58.53
